createdAt,value
2019-04-28T00:00:49.099Z,8.02
2019-04-28T00:03:20.766Z,8.77
2019-04-28T00:05:51.422Z,7.79
2019-04-28T00:08:21.034Z,8.00
2019-04-28T00:10:53.106Z,7.76
2019-04-28T00:13:22.352Z,7.24
2019-04-28T00:15:53.873Z,7.05
2019-04-28T00:18:23.801Z,7.10
2019-04-28T00:21:03.388Z,7.02
2019-04-28T00:23:51.239Z,7.15
2019-04-28T00:26:32.352Z,7.29
2019-04-28T00:29:01.737Z,7.07
2019-04-28T00:31:31.343Z,7.39
2019-04-28T00:34:01.325Z,7.64
2019-04-28T00:36:31.347Z,7.64
2019-04-28T00:39:01.506Z,10.19
2019-04-28T00:41:32.688Z,7.82
2019-04-28T00:44:02.092Z,7.50
2019-04-28T00:46:36.146Z,7.58
2019-04-28T00:49:05.651Z,8.05
2019-04-28T00:51:35.098Z,7.49
2019-04-28T00:54:04.620Z,7.69
2019-04-28T00:56:33.989Z,8.08
2019-04-28T00:59:03.439Z,7.99
2019-04-28T01:01:37.541Z,8.15
2019-04-28T01:04:06.924Z,8.36
2019-04-28T01:06:36.373Z,8.75
2019-04-28T01:09:07.668Z,8.64
2019-04-28T01:11:38.928Z,8.70
2019-04-28T01:14:08.390Z,8.43
2019-04-28T01:16:57.264Z,8.82
2019-04-28T01:19:31.188Z,8.58
2019-04-28T01:22:13.052Z,8.55
2019-04-28T01:24:41.775Z,8.81
2019-04-28T01:27:12.794Z,9.31
2019-04-28T01:29:42.160Z,9.14
2019-04-28T01:32:20.331Z,8.96
2019-04-28T01:34:49.925Z,9.00
2019-04-28T01:37:19.692Z,9.35
2019-04-28T01:39:49.599Z,9.98
2019-04-28T01:42:20.408Z,9.26
2019-04-28T01:44:49.842Z,9.33
2019-04-28T01:47:20.495Z,9.14
2019-04-28T01:49:50.167Z,8.93
2019-04-28T01:52:20.282Z,8.49
2019-04-28T01:54:50.288Z,8.51
2019-04-28T01:57:21.518Z,8.48
2019-04-28T01:59:51.794Z,8.34
2019-04-28T02:02:21.806Z,8.18
2019-04-28T02:04:51.842Z,7.86
2019-04-28T02:07:22.466Z,8.40
2019-04-28T02:09:51.858Z,8.90
2019-04-28T02:12:21.915Z,8.69
2019-04-28T02:14:52.153Z,8.63
2019-04-28T02:17:22.019Z,8.56
2019-04-28T02:19:51.983Z,8.64
2019-04-28T02:22:29.915Z,8.51
2019-04-28T02:25:00.786Z,8.54
2019-04-28T02:27:30.366Z,8.05
2019-04-28T02:30:00.307Z,8.13
2019-04-28T02:32:30.859Z,7.92
2019-04-28T02:35:01.528Z,8.15
2019-04-28T02:37:32.084Z,7.93
2019-04-28T02:40:03.522Z,8.00
2019-04-28T02:42:33.680Z,7.64
2019-04-28T02:45:04.809Z,7.89
2019-04-28T02:47:34.406Z,7.70
2019-04-28T02:50:11.175Z,7.90
2019-04-28T02:52:57.163Z,7.79
2019-04-28T02:55:26.619Z,7.83
2019-04-28T02:57:56.004Z,7.70
2019-04-28T03:00:25.381Z,7.64
2019-04-28T03:02:54.908Z,7.54
2019-04-28T03:05:24.356Z,7.52
2019-04-28T03:07:53.820Z,7.45
2019-04-28T03:10:23.253Z,7.25
2019-04-28T03:12:52.741Z,7.14
2019-04-28T03:15:22.672Z,7.16
2019-04-28T03:17:53.301Z,6.81
2019-04-28T03:20:22.808Z,7.10
2019-04-28T03:22:53.434Z,7.13
2019-04-28T03:25:40.760Z,7.22
2019-04-28T03:28:21.402Z,7.22
2019-04-28T03:30:53.777Z,7.17
2019-04-28T03:33:26.121Z,7.24
2019-04-28T03:35:56.022Z,7.53
2019-04-28T03:38:26.438Z,7.47
2019-04-28T03:40:55.847Z,7.33
2019-04-28T03:43:25.278Z,7.30
2019-04-28T03:46:02.700Z,7.54
2019-04-28T03:48:30.928Z,7.39
2019-04-28T03:51:01.115Z,7.59
2019-04-28T03:56:11.410Z,7.78
2019-04-28T03:58:40.955Z,8.13
2019-04-28T04:01:11.066Z,8.47
2019-04-28T04:03:41.726Z,8.76
2019-04-28T04:06:12.404Z,8.67
2019-04-28T04:08:41.865Z,8.75
2019-04-28T04:11:25.256Z,9.23
2019-04-28T04:14:11.510Z,9.04
2019-04-28T04:16:51.547Z,9.18
2019-04-28T04:19:20.928Z,9.08
2019-04-28T04:21:52.660Z,9.08
2019-04-28T04:24:21.396Z,9.40
2019-04-28T04:26:50.784Z,9.30
2019-04-28T04:29:21.663Z,9.84
2019-04-28T04:31:52.207Z,9.59
2019-04-28T04:34:21.613Z,9.92
2019-04-28T04:36:51.049Z,9.61
2019-04-28T04:39:20.789Z,9.81
2019-04-28T04:41:50.464Z,10.04
2019-04-28T04:44:21.061Z,10.02
2019-04-28T04:46:50.990Z,10.17
2019-04-28T04:49:21.484Z,10.15
2019-04-28T04:51:51.209Z,10.01
2019-04-28T04:54:20.642Z,10.03
2019-04-28T04:56:50.225Z,9.85
2019-04-28T04:59:20.269Z,10.03
2019-04-28T05:01:51.348Z,10.68
2019-04-28T05:04:22.369Z,10.25
2019-04-28T05:06:51.759Z,10.20
2019-04-28T05:09:21.136Z,10.26
2019-04-28T05:11:50.520Z,10.74
2019-04-28T05:14:20.102Z,10.53
2019-04-28T05:16:49.837Z,10.55
2019-04-28T05:19:19.925Z,10.31
2019-04-28T05:21:49.930Z,10.43
2019-04-28T05:24:27.122Z,10.73
2019-04-28T05:26:56.512Z,11.06
2019-04-28T05:29:26.683Z,11.52
2019-04-28T05:31:59.855Z,11.24
2019-04-28T05:34:29.528Z,11.82
2019-04-28T05:37:00.545Z,12.06
2019-04-28T05:39:29.895Z,11.96
2019-04-28T05:42:00.830Z,12.32
2019-04-28T05:44:32.059Z,12.98
2019-04-28T05:47:02.569Z,13.01
2019-04-28T05:49:39.572Z,13.94
2019-04-28T05:52:11.945Z,13.84
2019-04-28T05:54:45.621Z,13.98
2019-04-28T05:57:16.645Z,14.00
2019-04-28T05:59:47.664Z,13.45
2019-04-28T06:02:27.215Z,13.11
2019-04-28T06:04:56.577Z,13.18
2019-04-28T06:07:36.096Z,13.67
2019-04-28T06:10:07.171Z,13.67
2019-04-28T06:12:36.576Z,13.68
2019-04-28T06:15:11.692Z,13.89
2019-04-28T06:17:40.250Z,14.05
2019-04-28T06:20:11.856Z,14.72
2019-04-28T06:22:40.937Z,15.24
2019-04-28T06:25:11.297Z,16.48
2019-04-28T06:27:40.692Z,15.64
2019-04-28T06:30:10.883Z,15.18
2019-04-28T06:32:40.281Z,14.47
2019-04-28T06:35:09.801Z,13.95
2019-04-28T06:37:39.264Z,13.93
2019-04-28T06:40:08.895Z,14.18
2019-04-28T06:42:38.352Z,14.27
2019-04-28T06:45:08.281Z,14.27
2019-04-28T06:47:37.656Z,15.72
2019-04-28T06:50:07.179Z,15.69
2019-04-28T06:52:36.568Z,14.70
2019-04-28T06:55:07.560Z,14.84
2019-04-28T06:57:36.950Z,15.08
2019-04-28T07:00:07.131Z,15.41
2019-04-28T07:02:36.586Z,15.19
2019-04-28T07:05:07.377Z,15.10
2019-04-28T07:07:36.766Z,14.65
2019-04-28T07:10:07.587Z,14.48
2019-04-28T07:12:36.963Z,14.04
2019-04-28T07:15:06.695Z,13.64
2019-04-28T07:17:36.136Z,13.73
2019-04-28T07:20:08.501Z,14.39
2019-04-28T07:22:37.887Z,14.59
2019-04-28T07:25:08.378Z,14.71
2019-04-28T07:27:37.768Z,14.46
2019-04-28T07:30:08.467Z,14.20
2019-04-28T07:32:37.855Z,14.68
2019-04-28T07:35:07.239Z,14.99
2019-04-28T07:37:37.082Z,14.94
2019-04-28T07:40:07.601Z,14.97
2019-04-28T07:42:36.992Z,15.47
2019-04-28T07:45:09.380Z,14.81
2019-04-28T07:47:38.765Z,14.75
2019-04-28T07:50:08.594Z,14.80
2019-04-28T07:52:45.288Z,14.95
2019-04-28T07:55:14.683Z,15.12
2019-04-28T07:57:44.065Z,14.96
2019-04-28T08:00:15.629Z,15.22
2019-04-28T08:02:45.072Z,14.91
2019-04-28T08:05:14.523Z,14.84
2019-04-28T08:07:43.991Z,15.10
2019-04-28T08:10:13.711Z,14.55
2019-04-28T08:12:43.130Z,14.32
2019-04-28T08:15:12.540Z,14.21
2019-04-28T08:17:42.003Z,14.29
2019-04-28T08:20:11.515Z,14.45
2019-04-28T08:22:40.891Z,14.23
2019-04-28T08:25:11.520Z,14.28
2019-04-28T08:27:40.907Z,14.51
2019-04-28T08:30:10.638Z,14.18
2019-04-28T08:32:44.442Z,14.51
2019-04-28T08:35:13.971Z,14.92
2019-04-28T08:37:43.426Z,15.01
2019-04-28T08:40:12.801Z,15.35
2019-04-28T08:42:42.177Z,15.04
2019-04-28T08:45:11.907Z,14.64
2019-04-28T08:47:41.294Z,14.96
2019-04-28T08:50:11.034Z,17.31
2019-04-28T08:52:40.416Z,18.39
2019-04-28T08:55:09.943Z,15.63
2019-04-28T08:57:39.327Z,15.63
2019-04-28T09:00:10.320Z,17.09
2019-04-28T09:02:40.493Z,17.86
2019-04-28T09:05:10.309Z,18.55
2019-04-28T09:07:39.964Z,17.55
2019-04-28T09:10:10.714Z,18.13
2019-04-28T09:12:40.463Z,18.48
2019-04-28T09:15:10.086Z,18.69
2019-04-28T09:17:39.575Z,18.19
2019-04-28T09:20:09.611Z,18.70
2019-04-28T09:22:39.329Z,16.12
2019-04-28T09:25:09.620Z,17.61
2019-04-28T09:27:39.707Z,17.56
2019-04-28T09:30:10.146Z,17.67
2019-04-28T09:32:40.270Z,17.97
2019-04-28T09:35:10.852Z,18.16
2019-04-28T09:37:40.610Z,17.86
2019-04-28T09:40:14.931Z,17.42
2019-04-28T09:42:46.042Z,17.65
2019-04-28T09:45:19.877Z,17.43
2019-04-28T09:47:49.350Z,17.01
2019-04-28T09:50:18.739Z,18.53
2019-04-28T09:52:48.831Z,18.15
2019-04-28T09:55:19.260Z,16.58
2019-04-28T09:57:48.651Z,16.68
2019-04-28T10:00:18.216Z,16.47
2019-04-28T10:02:47.745Z,15.87
2019-04-28T10:05:17.835Z,17.02
2019-04-28T10:07:47.243Z,16.31
2019-04-28T10:10:17.831Z,16.63
2019-04-28T10:12:47.221Z,18.21
2019-04-28T10:15:17.042Z,16.38
2019-04-28T10:17:46.437Z,17.19
2019-04-28T10:20:16.255Z,17.90
2019-04-28T10:22:45.631Z,16.23
2019-04-28T10:25:15.158Z,16.87
2019-04-28T10:27:45.250Z,16.84
2019-04-28T10:30:16.185Z,17.18
2019-04-28T10:32:45.580Z,17.09
2019-04-28T10:35:15.888Z,17.54
2019-04-28T10:37:46.319Z,16.19
2019-04-28T10:40:35.537Z,16.49
2019-04-28T10:43:05.164Z,16.43
2019-04-28T10:45:36.259Z,16.82
2019-04-28T10:48:05.672Z,16.80
2019-04-28T10:50:35.058Z,17.47
2019-04-28T10:53:04.447Z,18.17
2019-04-28T10:55:33.905Z,16.95
2019-04-28T10:58:03.755Z,17.95
2019-04-28T11:00:35.371Z,15.48
2019-04-28T11:03:04.954Z,16.25
2019-04-28T11:05:36.242Z,15.97
2019-04-28T11:08:07.339Z,16.22
2019-04-28T11:10:36.871Z,16.68
2019-04-28T11:13:06.458Z,17.22
2019-04-28T11:15:37.292Z,16.66
2019-04-28T11:18:09.349Z,16.56
2019-04-28T11:20:38.743Z,17.11
2019-04-28T11:23:08.205Z,17.46
2019-04-28T11:25:37.814Z,18.32
2019-04-28T11:28:07.879Z,18.55
2019-04-28T11:30:37.336Z,18.40
2019-04-28T11:33:08.777Z,18.87
2019-04-28T11:35:39.935Z,18.57
2019-04-28T11:38:09.323Z,19.70
2019-04-28T11:40:38.690Z,19.22
2019-04-28T11:43:08.080Z,19.89
2019-04-28T11:45:37.545Z,17.91
2019-04-28T11:48:07.093Z,17.29
2019-04-28T11:50:36.474Z,18.92
2019-04-28T11:53:05.957Z,18.44
2019-04-28T11:55:35.345Z,18.75
2019-04-28T11:58:05.221Z,17.35
2019-04-28T12:00:36.044Z,21.02
2019-04-28T12:03:05.653Z,19.26
2019-04-28T12:05:46.002Z,18.23
2019-04-28T12:08:15.727Z,17.07
2019-04-28T12:10:46.749Z,16.74
2019-04-28T12:13:20.743Z,17.06
2019-04-28T12:15:51.827Z,18.16
2019-04-28T12:18:38.779Z,19.50
2019-04-28T12:21:08.429Z,19.90
2019-04-28T12:23:37.884Z,19.46
2019-04-28T12:26:07.268Z,20.23
2019-04-28T12:28:36.655Z,19.17
2019-04-28T12:31:06.034Z,18.43
2019-04-28T12:33:35.493Z,19.22
2019-04-28T12:36:07.291Z,19.28
2019-04-28T12:38:36.753Z,19.28
2019-04-28T12:41:06.120Z,20.12
2019-04-28T12:43:35.503Z,19.38
2019-04-28T12:46:05.423Z,20.16
2019-04-28T12:48:35.315Z,21.49
2019-04-28T12:51:05.339Z,22.47
2019-04-28T12:53:37.400Z,20.19
2019-04-28T12:56:06.875Z,19.70
2019-04-28T12:58:36.258Z,19.37
2019-04-28T13:01:07.739Z,20.09
2019-04-28T13:03:38.849Z,19.98
2019-04-28T13:06:15.623Z,19.87
2019-04-28T13:08:45.046Z,19.50
2019-04-28T13:11:14.495Z,18.96
2019-04-28T13:13:46.752Z,18.58
2019-04-28T13:16:15.028Z,18.60
2019-04-28T13:18:45.372Z,17.67
2019-04-28T13:21:14.762Z,18.38
2019-04-28T13:23:44.162Z,18.26
2019-04-28T13:26:13.576Z,19.88
2019-04-28T13:28:42.934Z,18.88
2019-04-28T13:31:12.330Z,19.52
2019-04-28T13:33:55.403Z,18.62
2019-04-28T13:36:14.844Z,18.49
2019-04-28T13:38:43.911Z,19.23
2019-04-28T13:41:13.299Z,20.18
2019-04-28T13:43:42.694Z,18.80
2019-04-28T13:46:12.149Z,17.30
2019-04-28T13:48:41.614Z,17.36
2019-04-28T13:51:10.999Z,16.90
2019-04-28T13:53:40.407Z,17.30
2019-04-28T13:56:09.769Z,17.72
2019-04-28T13:58:39.440Z,18.20
2019-04-28T14:01:19.276Z,19.50
2019-04-28T14:04:01.942Z,19.49
2019-04-28T14:06:32.979Z,21.85
2019-04-28T14:09:02.415Z,21.99
2019-04-28T14:11:33.380Z,20.46
2019-04-28T14:14:02.764Z,20.60
2019-04-28T14:16:32.146Z,20.06
2019-04-28T14:19:01.523Z,19.66
2019-04-28T14:21:30.921Z,18.93
2019-04-28T14:24:00.371Z,20.78
2019-04-28T14:26:29.774Z,22.51
2019-04-28T14:28:59.183Z,22.44
2019-04-28T14:31:28.560Z,19.91
2019-04-28T14:33:57.940Z,19.64
2019-04-28T14:36:27.389Z,20.59
2019-04-28T14:38:56.727Z,17.74
2019-04-28T14:41:26.108Z,17.84
2019-04-28T14:43:55.502Z,16.97
2019-04-28T14:46:25.871Z,18.25
2019-04-28T14:48:55.618Z,18.47
2019-04-28T14:51:25.003Z,17.62
2019-04-28T14:53:55.353Z,17.69
2019-04-28T14:56:24.743Z,17.72
2019-04-28T14:58:54.125Z,17.13
2019-04-28T15:01:41.117Z,17.42
2019-04-28T15:04:20.760Z,17.81
2019-04-28T15:06:55.811Z,18.19
2019-04-28T15:09:32.924Z,17.15
2019-04-28T15:12:04.079Z,17.28
2019-04-28T15:14:33.456Z,17.46
2019-04-28T15:17:02.845Z,17.08
2019-04-28T15:19:32.225Z,17.39
2019-04-28T15:22:01.619Z,17.40
2019-04-28T15:24:31.990Z,17.54
2019-04-28T15:27:01.355Z,17.19
2019-04-28T15:29:30.751Z,17.05
2019-04-28T15:32:00.129Z,17.45
2019-04-28T15:34:29.523Z,17.14
2019-04-28T15:37:09.223Z,17.35
2019-04-28T15:39:30.000Z,16.69
2019-04-28T15:41:59.387Z,17.17
2019-04-28T15:44:28.767Z,17.03
2019-04-28T15:46:58.159Z,16.40
2019-04-28T15:49:27.549Z,16.81
2019-04-28T15:51:56.935Z,17.28
2019-04-28T15:54:26.324Z,16.84
2019-04-28T15:56:55.806Z,17.22
2019-04-28T15:59:25.186Z,17.20
2019-04-28T16:01:54.649Z,17.23
2019-04-28T16:04:24.039Z,17.10
2019-04-28T16:06:53.438Z,16.86
2019-04-28T16:09:22.811Z,17.07
2019-04-28T16:11:52.204Z,16.83
2019-04-28T16:14:21.594Z,16.68
2019-04-28T16:16:50.985Z,16.82
2019-04-28T16:19:20.384Z,16.38
2019-04-28T16:21:49.771Z,16.08
2019-04-28T16:24:19.228Z,16.12
2019-04-28T16:26:48.614Z,16.08
2019-04-28T16:29:17.986Z,16.00
2019-04-28T16:31:48.006Z,16.25
2019-04-28T16:34:18.140Z,16.32
2019-04-28T16:36:48.480Z,15.68
2019-04-28T16:39:18.620Z,16.01
2019-04-28T16:41:49.422Z,16.47
2019-04-28T16:44:19.697Z,15.72
2019-04-28T16:46:49.387Z,16.18
2019-04-28T16:49:19.534Z,15.97
2019-04-28T16:51:49.855Z,16.21
2019-04-28T16:54:19.998Z,15.75
2019-04-28T16:57:01.231Z,15.64
2019-04-28T16:59:35.347Z,15.69
2019-04-28T17:02:06.523Z,15.92
2019-04-28T17:04:35.999Z,15.40
2019-04-28T17:07:05.449Z,15.17
2019-04-28T17:12:05.168Z,15.50
2019-04-28T17:14:34.699Z,15.65
2019-04-28T17:17:04.090Z,15.60
2019-04-28T17:19:33.463Z,15.33
2019-04-28T17:22:02.940Z,14.91
2019-04-28T17:24:32.442Z,15.41
2019-04-28T17:27:01.903Z,15.41
2019-04-28T17:29:31.458Z,15.27
2019-04-28T17:32:00.917Z,15.33
2019-04-28T17:34:30.365Z,14.49
2019-04-28T17:36:59.746Z,14.68
2019-04-28T17:39:29.780Z,14.28
2019-04-28T17:41:59.304Z,14.17
2019-04-28T17:44:28.769Z,14.10
2019-04-28T17:46:58.306Z,14.46
2019-04-28T17:49:31.982Z,13.80
2019-04-28T17:52:01.439Z,14.12
2019-04-28T17:54:30.933Z,14.11
2019-04-28T17:57:00.324Z,14.00
2019-04-28T17:59:29.717Z,14.16
2019-04-28T18:02:06.486Z,14.37
2019-04-28T18:04:40.094Z,13.80
2019-04-28T18:07:11.644Z,14.28
2019-04-28T18:09:41.097Z,14.33
2019-04-28T18:12:10.829Z,14.05
2019-04-28T18:14:41.655Z,13.99
2019-04-28T18:17:12.845Z,13.94
2019-04-28T18:19:42.235Z,14.09
2019-04-28T18:22:11.715Z,14.01
2019-04-28T18:24:41.100Z,13.39
2019-04-28T18:27:10.556Z,13.69
2019-04-28T18:29:40.033Z,13.96
2019-04-28T18:32:11.677Z,13.82
2019-04-28T18:34:45.803Z,13.91
2019-04-28T18:37:19.745Z,13.45
2019-04-28T18:40:07.019Z,13.08
2019-04-28T18:42:44.796Z,13.04
2019-04-28T18:45:14.703Z,13.49
2019-04-28T18:47:44.145Z,13.17
2019-04-28T18:50:13.605Z,13.35
2019-04-28T18:52:42.983Z,13.31
2019-04-28T18:55:13.422Z,12.95
2019-04-28T18:57:42.794Z,13.29
2019-04-28T19:00:13.928Z,12.97
2019-04-28T19:02:45.248Z,13.30
2019-04-28T19:05:14.853Z,13.13
2019-04-28T19:07:49.228Z,13.16
2019-04-28T19:10:23.021Z,13.39
2019-04-28T19:12:56.898Z,12.70
2019-04-28T19:15:47.077Z,12.64
2019-04-28T19:18:18.176Z,12.92
2019-04-28T19:20:47.560Z,13.28
2019-04-28T19:23:17.004Z,13.02
2019-04-28T19:25:46.400Z,12.94
2019-04-28T19:28:15.772Z,13.49
2019-04-28T19:30:45.670Z,12.60
2019-04-28T19:33:15.195Z,12.84
2019-04-28T19:35:44.587Z,12.59
2019-04-28T19:38:14.044Z,12.82
2019-04-28T19:40:43.439Z,12.93
2019-04-28T19:43:12.885Z,12.95
2019-04-28T19:45:43.847Z,12.98
2019-04-28T19:48:13.314Z,13.29
2019-04-28T19:50:42.836Z,12.59
2019-04-28T19:53:12.227Z,12.39
2019-04-28T19:55:43.266Z,12.42
2019-04-28T19:58:15.917Z,12.62
2019-04-28T20:00:49.883Z,12.72
2019-04-28T20:03:19.282Z,12.80
2019-04-28T20:05:48.674Z,12.45
2019-04-28T20:08:18.066Z,12.33
2019-04-28T20:10:47.459Z,12.47
2019-04-28T20:13:16.919Z,12.40
2019-04-28T20:15:46.390Z,12.03
2019-04-28T20:18:17.042Z,12.42
2019-04-28T20:20:46.597Z,12.56
2019-04-28T20:23:16.148Z,12.56
2019-04-28T20:25:45.665Z,12.52
2019-04-28T20:28:15.015Z,12.42
2019-04-28T20:30:44.407Z,12.21
2019-04-28T20:33:13.874Z,12.17
2019-04-28T20:35:44.953Z,12.50
2019-04-28T20:38:16.042Z,12.11
2019-04-28T20:40:49.774Z,12.31
2019-04-28T20:43:20.990Z,12.27
2019-04-28T20:45:50.516Z,11.82
2019-04-28T20:48:19.973Z,11.49
2019-04-28T20:50:49.365Z,11.95
2019-04-28T20:53:19.396Z,11.45
2019-04-28T20:55:50.100Z,12.13
2019-04-28T20:58:20.450Z,11.54
2019-04-28T21:00:49.839Z,11.58
2019-04-28T21:03:19.578Z,11.78
2019-04-28T21:05:48.969Z,11.60
2019-04-28T21:08:18.356Z,11.60
2019-04-28T21:10:47.754Z,11.60
2019-04-28T21:13:17.158Z,11.79
2019-04-28T21:15:46.526Z,11.33
2019-04-28T21:18:15.921Z,11.42
2019-04-28T21:20:45.319Z,11.62
2019-04-28T21:23:14.712Z,11.59
2019-04-28T21:25:44.347Z,11.41
2019-04-28T21:28:14.926Z,11.48
2019-04-28T21:30:45.068Z,11.73
2019-04-28T21:33:15.247Z,11.61
2019-04-28T21:35:45.557Z,11.88
2019-04-28T21:38:15.631Z,11.66
2019-04-28T21:40:45.740Z,11.37
2019-04-28T21:43:20.402Z,11.63
2019-04-28T21:48:52.607Z,10.97
2019-04-28T21:51:21.990Z,10.76
2019-04-28T21:53:51.362Z,11.01
2019-04-28T21:56:20.767Z,11.17
2019-04-28T21:58:50.147Z,11.15
2019-04-28T22:01:22.661Z,11.42
2019-04-28T22:03:52.108Z,11.42
2019-04-28T22:06:21.566Z,11.05
2019-04-28T22:08:51.273Z,11.09
2019-04-28T22:11:20.716Z,11.12
2019-04-28T22:13:50.103Z,10.53
2019-04-28T22:16:19.494Z,10.27
2019-04-28T22:18:49.285Z,10.92
2019-04-28T22:21:19.652Z,10.83
2019-04-28T22:23:51.371Z,10.69
2019-04-28T22:26:38.519Z,10.50
2019-04-28T22:29:07.971Z,10.91
2019-04-28T22:31:37.435Z,10.55
2019-04-28T22:34:06.974Z,10.62
2019-04-28T22:36:36.347Z,10.25
2019-04-28T22:39:07.303Z,10.63
2019-04-28T22:41:38.239Z,10.63
2019-04-28T22:44:07.869Z,10.42
2019-04-28T22:46:37.323Z,10.45
2019-04-28T22:49:06.876Z,10.45
2019-04-28T22:51:36.392Z,10.42
2019-04-28T22:54:10.274Z,10.12
2019-04-28T22:56:41.362Z,10.20
2019-04-28T22:59:12.522Z,10.39
2019-04-28T23:01:52.446Z,10.25
2019-04-28T23:04:23.487Z,10.34
2019-04-28T23:06:53.741Z,10.21
2019-04-28T23:09:24.043Z,10.10
2019-04-28T23:11:54.261Z,10.17
2019-04-28T23:14:24.404Z,10.29
2019-04-28T23:16:54.813Z,10.29
2019-04-28T23:19:26.490Z,10.29
2019-04-28T23:22:12.320Z,10.10
2019-04-28T23:24:41.774Z,9.89
2019-04-28T23:27:11.147Z,9.97
2019-04-28T23:29:40.595Z,10.27
2019-04-28T23:32:10.053Z,10.13
2019-04-28T23:34:39.492Z,9.79
2019-04-28T23:37:08.874Z,10.02
2019-04-28T23:39:38.262Z,9.93
2019-04-28T23:42:09.284Z,9.91
2019-04-28T23:44:38.732Z,9.81
2019-04-28T23:47:08.112Z,9.74
2019-04-28T23:49:37.562Z,9.50
2019-04-28T23:52:14.432Z,10.33
2019-04-28T23:54:48.347Z,10.11
2019-04-28T23:57:17.898Z,9.90
2019-04-28T23:59:48.360Z,9.51
